Time;durP1;ratioP1;P1;durP2;ratioP2;P2;SDS_P1;SDS_P2;PMS_P1;PMS_P2;Temp;Humidity;BMP_temperature;BMP_pressure;BME280_temperature;BME280_humidity;BME280_pressure;Samples;Min_cycle;Max_cycle;Signal;HPM_P1;HPM_P2
2022/10/27 00:01:29;;;;;;;4.10;2.10;;;;;;;12.10;81.47;99499.23;25395;1342;3048996;-70
2022/10/27 00:03:58;;;;;;;2.60;1.40;;;;;;;11.96;82.70;99500.31;25361;1334;3027322;-69
2022/10/27 00:06:27;;;;;;;4.30;2.10;;;;;;;12.43;81.52;99498.09;25412;1326;3026043;-69
2022/10/27 00:08:59;;;;;;;3.60;2.00;;;;;;;12.78;79.79;99484.30;25386;1340;3049774;-69
2022/10/27 00:11:29;;;;;;;3.60;2.30;;;;;;;13.02;79.08;99490.55;25380;1334;3026584;-70
2022/10/27 00:13:58;;;;;;;3.30;2.30;;;;;;;12.86;79.37;99497.77;25367;1335;3025825;-72
2022/10/27 00:16:27;;;;;;;3.60;2.40;;;;;;;12.52;80.18;99498.54;25393;1326;3025829;-66
2022/10/27 00:18:58;;;;;;;4.50;2.80;;;;;;;12.30;81.24;99499.34;25379;1326;3068969;-72
2022/10/27 00:21:27;;;;;;;3.10;1.60;;;;;;;12.16;82.34;99498.29;25392;1337;3027411;-68
2022/10/27 00:23:55;;;;;;;5.10;2.00;;;;;;;12.38;81.85;99503.86;25389;1340;3048684;-72
2022/10/27 00:26:24;;;;;;;3.30;2.10;;;;;;;12.75;80.09;99498.89;25363;1337;3025899;-71
2022/10/27 00:28:53;;;;;;;3.90;2.50;;;;;;;12.70;79.59;99498.17;25385;1339;3053629;-70
2022/10/27 00:31:22;;;;;;;3.70;2.20;;;;;;;12.63;79.71;99505.47;25366;1340;3027091;-68
2022/10/27 00:33:51;;;;;;;7.60;2.50;;;;;;;12.43;80.30;99499.48;25388;1337;3051326;-66
2022/10/27 00:36:22;;;;;;;3.60;2.50;;;;;;;12.29;80.22;99503.76;25392;1337;3026853;-69
2022/10/27 00:38:55;;;;;;;5.30;2.90;;;;;;;12.01;81.32;99511.23;25386;1335;3026414;-70
2022/10/27 00:41:26;;;;;;;2.90;1.80;;;;;;;11.92;81.70;99507.20;25376;1340;3028692;-71
2022/10/27 00:43:55;;;;;;;3.20;1.90;;;;;;;12.49;80.32;99498.04;25383;1333;3026602;-73
2022/10/27 00:46:40;;;;;;;4.90;2.30;;;;;;;12.90;78.18;99502.05;25370;1337;3026946;-67
2022/10/27 00:49:16;;;;;;;5.10;2.40;;;;;;;12.80;77.42;99511.20;25352;1335;3052970;-65
2022/10/27 00:52:06;;;;;;;4.50;2.60;;;;;;;12.57;78.07;99503.81;25393;1337;3053279;-71
2022/10/27 00:54:38;;;;;;;4.90;2.90;;;;;;;12.26;78.86;99515.92;25380;1332;3051737;-69
2022/10/27 00:57:09;;;;;;;6.40;3.20;;;;;;;12.21;79.09;99510.48;25350;1334;3027357;-66
2022/10/27 00:59:38;;;;;;;9.40;3.20;;;;;;;12.05;79.76;99510.95;25352;1341;3027480;-70
2022/10/27 01:02:09;;;;;;;3.10;1.70;;;;;;;11.84;80.77;99517.21;25372;1328;3027279;-69
2022/10/27 01:04:42;;;;;;;4.00;2.40;;;;;;;12.37;79.35;99509.87;25399;1332;3053421;-66
2022/10/27 01:07:12;;;;;;;4.30;2.80;;;;;;;12.88;77.20;99507.09;25394;1343;3027611;-72
2022/10/27 01:09:41;;;;;;;4.20;2.40;;;;;;;12.68;76.88;99501.27;25356;1340;3027617;-73
2022/10/27 01:12:10;;;;;;;4.10;2.90;;;;;;;12.70;77.14;99508.90;25389;1327;3026100;-69
2022/10/27 01:14:39;;;;;;;2.90;2.10;;;;;;;12.39;77.97;99511.15;25390;1336;3025659;-73
2022/10/27 01:17:44;;;;;;;3.80;2.80;;;;;;;12.12;78.61;99516.15;25378;1328;3068009;-75
2022/10/27 01:20:28;;;;;;;4.00;2.40;;;;;;;11.86;79.79;99520.09;25384;1334;3050508;-72
2022/10/27 01:23:12;;;;;;;2.60;1.90;;;;;;;11.66;80.92;99536.95;25386;1326;3056655;-72
2022/10/27 01:25:50;;;;;;;4.10;2.20;;;;;;;12.07;80.29;99528.39;25401;1334;3053606;-73
2022/10/27 01:28:22;;;;;;;4.40;2.70;;;;;;;12.48;77.92;99522.82;25389;1340;3054578;-72
2022/10/27 01:30:54;;;;;;;4.80;2.60;;;;;;;12.54;77.60;99524.77;25370;1340;3025741;-72
2022/10/27 01:33:25;;;;;;;4.00;2.50;;;;;;;12.29;78.00;99528.19;25391;1334;3027959;-66
2022/10/27 01:36:02;;;;;;;4.60;2.50;;;;;;;12.19;78.44;99528.51;25353;1337;3027091;-69
2022/10/27 01:38:35;;;;;;;3.40;2.20;;;;;;;11.96;78.76;99534.36;25370;1337;3069229;-66
2022/10/27 01:41:37;;;;;;;3.60;2.40;;;;;;;11.74;79.05;99537.88;25378;1340;3025920;-64
2022/10/27 01:44:08;;;;;;;2.50;1.90;;;;;;;11.60;80.15;99542.77;25362;1340;3057698;-71
2022/10/27 01:46:37;;;;;;;3.10;1.90;;;;;;;12.28;77.91;99524.15;25371;1337;3026308;-66
2022/10/27 01:49:06;;;;;;;3.60;1.80;;;;;;;12.70;75.48;99524.53;25366;1336;3026769;-70
2022/10/27 01:51:35;;;;;;;2.20;1.80;;;;;;;12.62;75.31;99520.88;25368;1335;3056193;-68
2022/10/27 01:54:04;;;;;;;3.20;2.00;;;;;;;12.14;76.69;99534.39;25402;1334;3027222;-67
2022/10/27 01:57:02;;;;;;;4.70;2.20;;;;;;;12.07;77.01;99535.57;25369;1332;3050384;-70
2022/10/27 02:00:14;;;;;;;4.00;2.40;;;;;;;11.68;78.41;99544.04;25219;1347;3056839;-66
2022/10/27 02:02:46;;;;;;;3.10;2.10;;;;;;;11.52;79.58;99545.40;25351;1334;3052932;-69
2022/10/27 02:05:32;;;;;;;2.30;1.40;;;;;;;11.46;79.94;99556.97;25377;1332;3026645;-66
2022/10/27 02:08:19;;;;;;;2.60;1.70;;;;;;;12.22;78.20;99547.73;25364;1336;3051967;-70
2022/10/27 02:11:03;;;;;;;4.00;1.70;;;;;;;12.58;75.95;99542.05;25395;1337;3052724;-67
2022/10/27 02:13:34;;;;;;;3.30;2.00;;;;;;;12.38;76.14;99550.42;25361;1329;3049885;-66
2022/10/27 02:16:08;;;;;;;3.80;1.80;;;;;;;12.21;76.71;99558.90;25378;1334;3027505;-62
2022/10/27 02:18:45;;;;;;;2.20;1.80;;;;;;;11.93;77.62;99562.98;25372;1334;3049718;-70
2022/10/27 02:21:14;;;;;;;5.60;1.80;;;;;;;11.82;77.97;99568.25;25376;1336;3056623;-70
2022/10/27 02:23:43;;;;;;;2.40;1.60;;;;;;;11.60;78.99;99565.96;25367;1334;3025709;-71
2022/10/27 02:26:56;;;;;;;1.30;0.90;;;;;;;11.51;79.52;99568.41;25404;1334;3050644;-66
2022/10/27 02:29:52;;;;;;;1.90;1.10;;;;;;;12.24;77.03;99554.16;25386;1333;3056376;-71
2022/10/27 02:32:22;;;;;;;2.20;1.40;;;;;;;12.65;75.01;99562.86;25369;1334;3052639;-68
2022/10/27 02:34:51;;;;;;;3.10;1.80;;;;;;;12.57;74.90;99564.21;25366;1329;3027005;-68
2022/10/27 02:37:32;;;;;;;2.80;1.50;;;;;;;12.29;75.52;99572.60;25392;1337;3056805;-66
2022/10/27 02:40:01;;;;;;;2.20;1.60;;;;;;;12.23;75.78;99567.42;25367;1336;3054675;-65
2022/10/27 02:42:30;;;;;;;2.00;1.50;;;;;;;11.92;76.88;99577.05;25374;1327;3026321;-69
2022/10/27 02:45:00;;;;;;;4.10;2.00;;;;;;;11.78;77.54;99575.83;25394;1330;3026942;-69
2022/10/27 02:47:29;;;;;;;1.60;1.10;;;;;;;11.67;77.84;99582.88;25431;1327;3027284;-67
2022/10/27 02:49:58;;;;;;;3.80;1.80;;;;;;;12.13;77.21;99584.85;25424;1327;3052440;-72
2022/10/27 02:52:27;;;;;;;3.60;1.80;;;;;;;12.71;75.04;99572.98;25379;1327;3027278;-65
2022/10/27 02:54:57;;;;;;;2.80;2.00;;;;;;;12.82;74.20;99574.36;25409;1334;3052573;-68
2022/10/27 02:57:26;;;;;;;3.20;2.30;;;;;;;12.66;74.55;99576.15;25423;1326;3026938;-66
2022/10/27 02:59:55;;;;;;;3.10;1.70;;;;;;;12.30;75.78;99587.27;25425;1334;3054634;-66
2022/10/27 03:02:24;;;;;;;4.20;2.30;;;;;;;12.03;77.17;99592.90;25412;1327;3025911;-65
2022/10/27 03:04:53;;;;;;;3.50;2.70;;;;;;;11.79;78.48;99603.33;25414;1325;3050060;-72
2022/10/27 03:07:22;;;;;;;3.00;1.70;;;;;;;11.87;78.47;99601.96;25423;1333;3027325;-74
2022/10/27 03:09:51;;;;;;;3.40;1.80;;;;;;;12.30;77.25;99597.45;25413;1336;3069382;-68
2022/10/27 03:12:21;;;;;;;3.90;2.50;;;;;;;12.74;75.49;99590.69;25426;1328;3027290;-67
2022/10/27 03:14:50;;;;;;;8.20;2.50;;;;;;;12.76;75.44;99592.48;25412;1333;3027575;-74
2022/10/27 03:17:20;;;;;;;3.60;2.30;;;;;;;12.62;75.39;99600.45;25405;1333;3070414;-69
2022/10/27 03:19:49;;;;;;;5.30;2.80;;;;;;;12.38;76.56;99598.16;25425;1327;3027365;-74
2022/10/27 03:22:18;;;;;;;8.00;3.50;;;;;;;12.14;77.42;99602.94;25415;1333;3047862;-69
2022/10/27 03:24:47;;;;;;;4.70;2.70;;;;;;;12.12;77.58;99600.95;25405;1338;3026731;-71
2022/10/27 03:27:16;;;;;;;2.80;1.90;;;;;;;12.04;77.87;99610.96;25420;1333;3052785;-71
2022/10/27 03:29:45;;;;;;;4.40;2.70;;;;;;;12.28;78.18;99613.42;25407;1334;3026994;-69
2022/10/27 03:32:14;;;;;;;5.20;2.50;;;;;;;12.75;75.63;99606.63;25398;1334;3051919;-69
2022/10/27 03:34:43;;;;;;;5.00;2.50;;;;;;;12.74;75.30;99607.77;25381;1334;3026230;-72
2022/10/27 03:37:13;;;;;;;5.60;2.70;;;;;;;12.55;75.91;99620.23;25422;1334;3051762;-70
2022/10/27 03:39:42;;;;;;;6.20;3.20;;;;;;;12.34;76.81;99617.78;25388;1326;3025968;-69
2022/10/27 03:42:11;;;;;;;5.90;3.50;;;;;;;12.17;77.59;99634.65;25433;1334;3050836;-73
2022/10/27 03:44:43;;;;;;;5.50;3.30;;;;;;;12.00;78.02;99630.80;25403;1333;3026549;-65
2022/10/27 03:47:12;;;;;;;4.90;2.30;;;;;;;11.92;78.61;99630.44;25399;1327;3026132;-72
2022/10/27 03:49:41;;;;;;;4.10;2.10;;;;;;;12.35;78.12;99627.54;25430;1327;3051121;-67
2022/10/27 03:52:10;;;;;;;4.40;2.80;;;;;;;13.07;75.35;99613.77;25413;1334;3027377;-68
2022/10/27 03:54:39;;;;;;;4.60;2.70;;;;;;;12.97;74.74;99619.17;25404;1334;3055484;-66
2022/10/27 03:57:12;;;;;;;4.50;3.20;;;;;;;12.57;75.84;99627.83;25428;1332;3027238;-67
2022/10/27 03:59:40;;;;;;;9.40;3.30;;;;;;;12.34;76.86;99628.30;25407;1335;3026647;-74
2022/10/27 04:02:09;;;;;;;3.80;2.90;;;;;;;12.17;77.37;99630.29;25418;1329;3027788;-74
2022/10/27 04:04:38;;;;;;;4.50;3.20;;;;;;;12.07;77.28;99631.65;25425;1326;3052969;-68
2022/10/27 04:07:07;;;;;;;3.60;1.90;;;;;;;12.01;77.49;99635.18;25434;1334;3027391;-71
2022/10/27 04:09:36;;;;;;;3.10;2.20;;;;;;;12.33;77.32;99633.79;25411;1323;3025656;-74
2022/10/27 04:12:05;;;;;;;4.10;2.60;;;;;;;12.86;75.17;99625.02;25420;1333;3051600;-72
2022/10/27 04:14:35;;;;;;;5.70;2.90;;;;;;;12.73;74.72;99632.59;25421;1336;3025606;-71
2022/10/27 04:17:04;;;;;;;4.60;2.70;;;;;;;12.60;75.15;99628.58;25410;1333;3026270;-68
2022/10/27 04:19:33;;;;;;;5.80;2.90;;;;;;;12.43;74.96;99631.58;25414;1340;3052311;-70
2022/10/27 04:22:02;;;;;;;4.20;2.80;;;;;;;12.16;75.97;99646.48;25425;1333;3027180;-70
2022/10/27 04:24:31;;;;;;;4.60;2.60;;;;;;;11.97;77.05;99650.32;25421;1326;3027547;-67
2022/10/27 04:27:00;;;;;;;5.00;3.40;;;;;;;11.84;77.15;99655.67;25421;1339;3052364;-71
2022/10/27 04:29:29;;;;;;;4.70;2.30;;;;;;;11.80;77.45;99644.20;25350;1337;3027055;-69
2022/10/27 04:31:58;;;;;;;4.60;2.70;;;;;;;12.42;75.69;99650.64;25399;1334;3057179;-68
2022/10/27 04:34:27;;;;;;;4.10;2.80;;;;;;;12.65;74.12;99652.09;25431;1334;3025887;-73
2022/10/27 04:36:56;;;;;;;6.10;2.90;;;;;;;12.60;73.90;99655.23;25417;1327;3050012;-68
2022/10/27 04:39:25;;;;;;;5.00;3.20;;;;;;;12.40;74.54;99655.63;25420;1334;3027303;-72
2022/10/27 04:41:55;;;;;;;3.90;2.70;;;;;;;12.25;74.91;99668.08;25408;1334;3068133;-71
2022/10/27 04:44:24;;;;;;;5.50;3.20;;;;;;;12.00;75.80;99664.73;25429;1326;3028085;-73
2022/10/27 04:46:55;;;;;;;7.50;3.30;;;;;;;11.89;76.02;99671.67;25411;1334;3026856;-69
2022/10/27 04:49:25;;;;;;;5.70;3.00;;;;;;;11.66;76.95;99679.59;25435;1334;3029500;-67
2022/10/27 04:51:54;;;;;;;5.20;2.00;;;;;;;11.67;76.77;99673.96;25413;1333;3027459;-74
2022/10/27 04:54:23;;;;;;;3.40;2.10;;;;;;;12.15;75.63;99669.05;25390;1320;3054969;-69
2022/10/27 04:56:52;;;;;;;3.50;2.50;;;;;;;12.74;73.17;99675.71;25423;1326;3026931;-65
2022/10/27 04:59:21;;;;;;;4.30;2.50;;;;;;;12.51;73.43;99674.64;25443;1326;3048699;-68
2022/10/27 05:01:50;;;;;;;4.00;2.20;;;;;;;12.50;73.46;99687.34;25427;1326;3026925;-69
2022/10/27 05:04:19;;;;;;;5.80;3.00;;;;;;;12.33;73.29;99686.72;25402;1334;3068472;-65
2022/10/27 05:06:49;;;;;;;3.70;2.70;;;;;;;11.98;74.44;99695.22;25407;1333;3027891;-68
2022/10/27 05:09:18;;;;;;;3.90;2.70;;;;;;;11.78;75.50;99691.34;25396;1333;3026803;-65
2022/10/27 05:11:47;;;;;;;5.40;3.00;;;;;;;11.63;76.16;99699.98;25420;1324;3068506;-74
2022/10/27 05:14:18;;;;;;;5.20;3.30;;;;;;;11.56;76.55;99708.64;25419;1333;3025964;-70
2022/10/27 05:16:47;;;;;;;5.20;2.00;;;;;;;11.44;77.14;99706.76;25410;1326;3027613;-74
2022/10/27 05:19:20;;;;;;;5.90;2.60;;;;;;;12.08;75.84;99717.76;25423;1334;3027539;-69
2022/10/27 05:21:49;;;;;;;6.60;2.50;;;;;;;12.50;74.16;99704.38;25431;1324;3026412;-74
2022/10/27 05:24:18;;;;;;;7.50;2.60;;;;;;;12.53;73.84;99715.61;25404;1332;3054580;-68
2022/10/27 05:26:48;;;;;;;4.80;3.00;;;;;;;12.26;74.58;99716.81;25419;1330;3026540;-74
2022/10/27 05:29:17;;;;;;;7.20;2.50;;;;;;;12.17;75.03;99715.59;25422;1334;3026664;-70
2022/10/27 05:31:46;;;;;;;7.30;3.10;;;;;;;11.89;75.69;99735.94;25406;1333;3056493;-70
2022/10/27 05:34:15;;;;;;;7.80;3.40;;;;;;;11.68;76.45;99734.55;25433;1333;3028128;-64
2022/10/27 05:36:46;;;;;;;4.70;3.00;;;;;;;11.55;77.18;99760.77;25427;1327;3050436;-71
2022/10/27 05:39:16;;;;;;;3.10;1.60;;;;;;;11.52;77.58;99731.71;25423;1333;3026005;-68
2022/10/27 05:41:45;;;;;;;10.70;2.30;;;;;;;12.14;76.17;99735.30;25416;1328;3027684;-68
2022/10/27 05:44:14;;;;;;;4.20;2.70;;;;;;;12.66;73.75;99732.33;25419;1334;3026989;-69
2022/10/27 05:46:43;;;;;;;7.30;2.50;;;;;;;12.65;72.91;99731.54;25406;1333;3027157;-68
2022/10/27 05:49:13;;;;;;;7.00;2.80;;;;;;;12.31;73.66;99751.30;25411;1334;3053129;-72
2022/10/27 05:51:42;;;;;;;5.00;2.50;;;;;;;12.03;74.50;99750.58;25423;1334;3026444;-71
2022/10/27 05:54:11;;;;;;;3.90;3.10;;;;;;;11.80;75.33;99761.55;25426;1334;3055670;-72
2022/10/27 05:56:40;;;;;;;12.70;2.90;;;;;;;11.65;76.00;99765.15;25421;1332;3025998;-70
2022/10/27 05:59:10;;;;;;;4.30;2.90;;;;;;;11.39;77.21;99776.32;25426;1334;3049385;-70
2022/10/27 06:01:39;;;;;;;4.70;1.80;;;;;;;11.33;77.17;99761.78;25431;1334;3028467;-67
2022/10/27 06:04:08;;;;;;;3.90;1.90;;;;;;;11.83;76.48;99777.36;25416;1333;3025966;-73
2022/10/27 06:06:37;;;;;;;4.80;2.20;;;;;;;12.26;74.09;99778.27;25414;1326;3050400;-69
2022/10/27 06:09:06;;;;;;;4.10;2.40;;;;;;;12.33;73.56;99771.49;25394;1330;3026708;-70
2022/10/27 06:11:35;;;;;;;4.00;2.50;;;;;;;12.09;74.36;99769.50;25417;1326;3069137;-70
2022/10/27 06:14:04;;;;;;;4.60;2.20;;;;;;;11.87;74.96;99782.40;25421;1333;3026888;-70
2022/10/27 06:16:36;;;;;;;5.70;2.30;;;;;;;11.68;75.47;99779.33;25427;1330;3049204;-71
2022/10/27 06:19:05;;;;;;;5.70;2.60;;;;;;;11.64;75.67;99783.60;25405;1324;3026946;-74
2022/10/27 06:21:34;;;;;;;3.70;2.30;;;;;;;11.46;76.48;99789.39;25416;1337;3026522;-70
2022/10/27 06:24:05;;;;;;;3.90;1.70;;;;;;;11.36;76.50;99794.34;25416;1333;3050216;-71
2022/10/27 06:26:34;;;;;;;2.40;1.80;;;;;;;11.95;75.35;99787.18;25412;1326;3027219;-72
2022/10/27 06:29:03;;;;;;;4.00;2.10;;;;;;;12.58;72.89;99782.06;25420;1331;3026700;-70
2022/10/27 06:31:32;;;;;;;3.40;2.10;;;;;;;12.46;72.58;99789.86;25413;1334;3048964;-67
2022/10/27 06:34:01;;;;;;;4.30;2.20;;;;;;;12.24;72.72;99799.30;25402;1327;3026237;-68
2022/10/27 06:36:30;;;;;;;3.60;1.90;;;;;;;12.08;73.17;99792.89;25414;1330;3052583;-72
2022/10/27 06:38:58;;;;;;;2.70;1.70;;;;;;;11.81;73.93;99802.79;25417;1333;3027026;-69
2022/10/27 06:41:28;;;;;;;5.60;2.50;;;;;;;11.65;74.78;99803.05;25412;1326;3050449;-68
2022/10/27 06:43:57;;;;;;;3.20;1.90;;;;;;;11.65;74.81;99808.98;25422;1326;3027656;-69
2022/10/27 06:46:26;;;;;;;4.20;2.00;;;;;;;11.65;74.78;99810.06;25421;1340;3052830;-68
2022/10/27 06:48:55;;;;;;;3.20;1.60;;;;;;;11.55;75.10;99822.16;25445;1332;3026066;-69
2022/10/27 06:51:24;;;;;;;5.50;2.00;;;;;;;12.05;74.09;99813.44;25420;1326;3051645;-71
2022/10/27 06:53:52;;;;;;;4.20;2.00;;;;;;;12.41;71.97;99817.90;25421;1334;3027183;-69
2022/10/27 06:56:22;;;;;;;6.30;2.90;;;;;;;12.41;71.33;99824.45;25424;1332;3054432;-69
2022/10/27 06:58:50;;;;;;;6.20;2.80;;;;;;;12.35;71.73;99819.33;25424;1334;3027451;-70
2022/10/27 07:01:20;;;;;;;4.10;2.60;;;;;;;12.21;72.12;99821.45;25426;1325;3048862;-70
2022/10/27 07:03:49;;;;;;;3.40;2.40;;;;;;;11.96;72.77;99825.95;25410;1327;3026100;-68
2022/10/27 07:10:16;;;;;;;7.30;4.00;;;;;;;11.81;73.36;99833.64;30715;1337;3012984;-71
2022/10/27 07:12:56;;;;;;;8.10;4.40;;;;;;;11.72;74.06;99831.16;24519;1337;3026065;-66
2022/10/27 07:15:34;;;;;;;6.30;2.60;;;;;;;11.65;73.99;99830.23;24501;1335;3049901;-67
2022/10/27 07:18:05;;;;;;;11.20;2.80;;;;;;;12.30;71.89;99840.91;24589;1328;3056087;-70
2022/10/27 07:20:37;;;;;;;5.30;2.60;;;;;;;12.59;70.34;99831.19;24544;1340;3027497;-70
2022/10/27 07:23:07;;;;;;;6.20;3.30;;;;;;;12.78;69.99;99827.17;23860;1331;4171404;-65
2022/10/27 07:25:37;;;;;;;4.10;2.30;;;;;;;12.50;70.07;99838.11;24614;1321;3028625;-70
2022/10/27 07:28:06;;;;;;;4.90;2.30;;;;;;;12.31;70.88;99836.45;24565;1336;3027007;-67
2022/10/27 07:30:38;;;;;;;4.70;2.60;;;;;;;12.22;70.80;99837.85;24636;1317;3053768;-64
2022/10/27 07:33:07;;;;;;;7.90;2.70;;;;;;;12.09;71.40;99843.21;24704;1333;3026591;-66
2022/10/27 07:35:36;;;;;;;7.30;2.70;;;;;;;12.20;71.72;99841.15;24642;1323;3026661;-67
2022/10/27 07:38:06;;;;;;;5.40;2.70;;;;;;;12.30;71.51;99842.14;24562;1332;3052823;-69
2022/10/27 07:40:36;;;;;;;8.10;4.10;;;;;;;12.08;71.90;99857.69;24531;1337;3027339;-70
2022/10/27 07:43:05;;;;;;;5.50;2.60;;;;;;;12.11;71.90;99855.21;24568;1331;3029061;-73
2022/10/27 07:45:36;;;;;;;7.20;3.30;;;;;;;12.15;71.97;99858.15;24631;1327;3054380;-68
2022/10/27 07:48:10;;;;;;;6.50;2.60;;;;;;;12.08;72.47;99865.44;24556;1330;3026701;-73
2022/10/27 07:50:39;;;;;;;9.40;2.50;;;;;;;12.65;71.15;99862.77;24589;1340;3026163;-66
2022/10/27 07:53:09;;;;;;;4.80;2.30;;;;;;;12.96;69.80;99856.09;24639;1331;3028356;-66
2022/10/27 07:55:38;;;;;;;6.00;2.60;;;;;;;13.19;68.75;99858.45;24551;1334;3050361;-71
2022/10/27 07:58:12;;;;;;;4.40;2.50;;;;;;;13.10;68.75;99857.65;24666;1330;3028036;-64
2022/10/27 08:00:43;;;;;;;5.00;2.60;;;;;;;12.86;69.46;99859.91;24565;1340;3049416;-68
2022/10/27 08:03:20;;;;;;;3.90;2.60;;;;;;;12.69;70.29;99862.02;24736;1340;3026615;-70
2022/10/27 08:05:50;;;;;;;7.00;3.00;;;;;;;12.52;70.78;99873.41;24606;1330;3050716;-64
2022/10/27 08:08:19;;;;;;;6.30;3.10;;;;;;;12.37;71.55;99870.54;24550;1330;3025934;-65
2022/10/27 08:10:51;;;;;;;6.70;3.30;;;;;;;12.27;72.05;99878.83;24587;1324;3027999;-67
2022/10/27 08:13:21;;;;;;;7.10;4.00;;;;;;;12.13;72.82;99877.94;24528;1331;3029338;-72
2022/10/27 08:15:49;;;;;;;13.50;3.30;;;;;;;12.25;72.27;99877.58;24607;1337;3026227;-67
2022/10/27 08:18:19;;;;;;;8.20;3.40;;;;;;;12.28;72.19;99879.86;24621;1334;3051388;-71
2022/10/27 08:20:49;;;;;;;4.90;2.10;;;;;;;12.30;72.84;99892.89;24596;1330;3028714;-66
2022/10/27 08:23:24;;;;;;;6.20;2.50;;;;;;;12.97;71.53;99878.71;24557;1332;3057541;-66
2022/10/27 08:25:53;;;;;;;5.80;3.00;;;;;;;13.72;68.63;99882.11;24666;1337;3053274;-64
2022/10/27 08:28:23;;;;;;;3.80;2.50;;;;;;;13.56;67.95;99880.73;24563;1327;3028865;-72
2022/10/27 08:30:52;;;;;;;4.10;1.90;;;;;;;13.53;67.53;99886.23;24495;1324;3056455;-65
2022/10/27 08:33:21;;;;;;;8.10;1.90;;;;;;;13.34;68.09;99884.42;24568;1329;3026243;-67
2022/10/27 08:35:51;;;;;;;4.20;2.00;;;;;;;13.32;68.41;99888.11;24558;1337;3050285;-71
2022/10/27 08:38:20;;;;;;;4.10;2.20;;;;;;;13.16;68.69;99883.66;24632;1324;3028908;-66
2022/10/27 08:41:28;;;;;;;4.50;2.30;;;;;;;13.07;68.54;99879.15;24532;1337;3070875;-64
2022/10/27 08:44:35;;;;;;;4.00;2.30;;;;;;;12.94;68.35;99887.69;24418;1326;3050007;-71
2022/10/27 08:47:07;;;;;;;7.50;2.30;;;;;;;12.82;68.27;99892.69;24614;1333;3057273;-70
2022/10/27 08:49:50;;;;;;;4.30;2.50;;;;;;;12.75;68.00;99890.61;24550;1328;3026553;-68
2022/10/27 08:52:38;;;;;;;4.20;2.20;;;;;;;12.51;69.22;99892.66;24592;1331;3053885;-68
2022/10/27 08:55:13;;;;;;;5.10;2.10;;;;;;;12.60;68.95;99886.84;24510;1340;3052271;-70
2022/10/27 08:57:53;;;;;;;5.30;1.90;;;;;;;12.68;69.27;99883.52;24644;1330;3053121;-71
2022/10/27 09:00:22;;;;;;;4.30;1.90;;;;;;;12.81;69.27;99884.28;24610;1331;3049384;-73
2022/10/27 09:03:03;;;;;;;4.60;2.20;;;;;;;12.88;69.33;99890.16;24577;1328;3029522;-71
2022/10/27 09:05:54;;;;;;;2.70;1.70;;;;;;;12.93;69.43;99892.13;24593;1330;3054294;-66
2022/10/27 09:08:25;;;;;;;5.00;2.10;;;;;;;12.88;68.21;99885.78;24588;1322;3049393;-72
2022/10/27 09:10:57;;;;;;;5.70;1.90;;;;;;;12.82;68.42;99885.15;24548;1337;3027250;-68
2022/10/27 09:13:38;;;;;;;4.30;2.00;;;;;;;12.79;68.63;99898.65;24525;1337;3028602;-68
2022/10/27 09:16:10;;;;;;;3.30;1.80;;;;;;;12.84;68.93;99893.44;24528;1334;3057130;-68
2022/10/27 09:18:49;;;;;;;3.50;1.70;;;;;;;12.80;68.92;99891.89;24519;1333;3053595;-68
2022/10/27 09:21:19;;;;;;;3.80;1.90;;;;;;;12.73;69.25;99902.71;24567;1334;3053740;-69
2022/10/27 09:23:56;;;;;;;3.80;2.10;;;;;;;12.74;69.08;99901.41;24570;1333;3026188;-69
2022/10/27 09:26:27;;;;;;;3.50;1.90;;;;;;;12.76;69.01;99909.36;24585;1333;3053945;-65
2022/10/27 09:28:56;;;;;;;4.10;2.20;;;;;;;12.77;69.47;99903.34;24585;1329;3027275;-68
2022/10/27 09:31:25;;;;;;;4.60;2.30;;;;;;;12.90;69.36;99900.60;24493;1334;3029647;-68
2022/10/27 09:34:00;;;;;;;5.00;3.30;;;;;;;12.85;69.01;99912.67;24617;1330;3028390;-69
2022/10/27 09:36:29;;;;;;;6.20;3.30;;;;;;;12.67;70.10;99904.30;24550;1334;3050844;-67
2022/10/27 09:38:59;;;;;;;7.30;4.00;;;;;;;12.68;70.42;99914.11;24555;1331;3027040;-69
2022/10/27 09:41:28;;;;;;;6.40;2.80;;;;;;;12.86;70.04;99914.42;24495;1333;3028649;-69
2022/10/27 09:43:59;;;;;;;6.00;3.10;;;;;;;13.39;69.23;99920.53;24592;1323;3049118;-66
2022/10/27 09:46:29;;;;;;;5.50;3.40;;;;;;;13.66;67.84;99917.72;24543;1323;3027850;-66
2022/10/27 09:49:03;;;;;;;6.60;3.40;;;;;;;13.59;67.91;99906.77;24530;1327;3029861;-71
2022/10/27 09:52:03;;;;;;;3.90;2.60;;;;;;;13.61;68.08;99909.27;24597;1330;3049889;-66
2022/10/27 09:54:33;;;;;;;5.80;3.00;;;;;;;13.50;68.51;99909.27;24508;1328;3069405;-71
2022/10/27 09:57:11;;;;;;;6.60;2.60;;;;;;;13.26;69.66;99906.08;24605;1331;3025991;-67
2022/10/27 09:59:42;;;;;;;5.20;3.20;;;;;;;13.23;70.01;99909.04;24525;1337;3056314;-64
2022/10/27 10:02:57;;;;;;;6.00;2.70;;;;;;;13.16;70.11;99918.30;24549;1334;3027430;-68
2022/10/27 10:05:33;;;;;;;6.30;2.90;;;;;;;12.96;70.93;99919.92;24524;1339;3051717;-72
2022/10/27 10:08:20;;;;;;;5.60;2.80;;;;;;;12.87;71.57;99917.67;24521;1339;3058540;-68
2022/10/27 10:11:04;;;;;;;5.30;2.90;;;;;;;12.96;71.72;99916.39;24482;1330;3053192;-65
2022/10/27 10:13:36;;;;;;;6.40;3.20;;;;;;;12.80;72.25;99922.31;24613;1333;3052224;-67
2022/10/27 10:16:08;;;;;;;4.70;2.60;;;;;;;12.81;72.29;99918.21;24591;1333;3029100;-70
2022/10/27 10:20:33;;;;;;;5.30;2.70;;;;;;;13.84;69.57;99909.54;30855;1338;3013635;-67
2022/10/27 10:23:06;;;;;;;6.30;3.70;;;;;;;14.11;68.04;99923.90;24520;1345;3070607;-70
2022/10/27 10:25:40;;;;;;;6.50;3.20;;;;;;;13.60;69.35;99920.59;24492;1337;3051009;-70
2022/10/27 10:28:16;;;;;;;6.50;3.50;;;;;;;13.44;70.17;99917.39;24495;1336;3057133;-71
2022/10/27 10:30:49;;;;;;;9.40;3.30;;;;;;;13.26;70.98;99922.58;24492;1336;3052994;-70
2022/10/27 10:33:15;;;;;;;6.40;3.70;;;;;;;13.17;71.50;99916.65;24173;1334;3027050;-68
2022/10/27 10:35:48;;;;;;;7.30;3.60;;;;;;;13.13;71.88;99922.34;24547;1334;3026903;-67
2022/10/27 10:38:23;;;;;;;5.80;3.90;;;;;;;13.06;72.06;99920.32;24599;1334;3026038;-72
2022/10/27 10:41:13;;;;;;;5.80;3.80;;;;;;;13.00;72.73;99915.09;24505;1337;3048809;-71
2022/10/27 10:44:15;;;;;;;7.80;3.80;;;;;;;12.99;72.49;99918.51;24620;1326;3068218;-66
2022/10/27 10:46:54;;;;;;;4.50;2.20;;;;;;;13.04;73.02;99916.78;24567;1327;3051494;-72
2022/10/27 10:49:25;;;;;;;4.50;2.30;;;;;;;13.87;70.72;99919.70;24579;1344;3057905;-72
2022/10/27 10:51:56;;;;;;;7.80;3.10;;;;;;;14.14;69.31;99917.48;24634;1332;3026466;-72
2022/10/27 10:54:44;;;;;;;9.00;3.50;;;;;;;14.14;68.95;99918.04;24666;1332;3025933;-72
2022/10/27 10:57:24;;;;;;;4.80;2.80;;;;;;;14.26;68.81;99911.25;24662;1334;3052398;-71
2022/10/27 10:59:53;;;;;;;5.80;3.20;;;;;;;14.10;69.08;99912.53;24604;1333;3053601;-68
2022/10/27 11:02:28;;;;;;;5.50;3.60;;;;;;;14.06;68.81;99908.73;24575;1330;3026549;-71
2022/10/27 11:05:08;;;;;;;8.30;4.10;;;;;;;14.04;68.88;99913.10;24496;1337;3050583;-70
2022/10/27 11:07:42;;;;;;;5.20;3.50;;;;;;;13.72;69.48;99916.09;24588;1340;3053731;-70
2022/10/27 11:10:17;;;;;;;6.70;3.60;;;;;;;13.64;69.89;99915.42;24518;1343;3027416;-70
2022/10/27 11:12:51;;;;;;;9.90;3.70;;;;;;;13.53;70.95;99919.61;24583;1334;3070204;-67
2022/10/27 11:15:31;;;;;;;4.50;3.40;;;;;;;13.31;71.98;99916.79;24575;1336;3050310;-68
2022/10/27 11:18:22;;;;;;;6.90;3.60;;;;;;;13.22;72.87;99926.88;24547;1341;3056479;-67
2022/10/27 11:21:01;;;;;;;4.80;3.20;;;;;;;13.14;73.60;99934.45;24527;1334;3053923;-70
2022/10/27 11:23:42;;;;;;;5.00;2.40;;;;;;;13.84;71.28;99917.25;24549;1334;3054106;-68
2022/10/27 11:26:12;;;;;;;4.60;2.80;;;;;;;14.16;69.57;99916.81;24581;1334;3051406;-69
2022/10/27 11:29:07;;;;;;;6.30;2.90;;;;;;;13.97;69.66;99919.16;24545;1334;3026172;-70
2022/10/27 11:31:55;;;;;;;7.70;3.30;;;;;;;13.65;70.25;99925.39;24557;1324;3051079;-66
2022/10/27 11:34:50;;;;;;;7.40;3.40;;;;;;;13.66;70.38;99919.36;24658;1330;3068917;-68
2022/10/27 11:37:41;;;;;;;9.60;3.40;;;;;;;13.40;71.81;99934.52;24534;1334;3052076;-67
2022/10/27 11:40:15;;;;;;;5.80;3.20;;;;;;;13.31;72.80;99928.26;24638;1334;3058609;-68
2022/10/27 11:42:50;;;;;;;10.30;3.30;;;;;;;13.11;73.91;99938.52;24644;1332;3027032;-66
2022/10/27 11:45:36;;;;;;;7.50;3.30;;;;;;;12.87;75.15;99937.16;24595;1327;3053773;-69
2022/10/27 11:48:16;;;;;;;4.80;2.20;;;;;;;12.88;75.35;99938.36;24569;1331;3050129;-71
2022/10/27 11:50:52;;;;;;;4.80;2.40;;;;;;;13.53;73.57;99940.73;24620;1334;3051563;-67